Altona, Indiana
Current Conditions -  °F | °C
As of 2:15 PM on Friday 31 Oct 2014 (Local Time) from KGWB Reporting Station
Overcast Overcast  
Wind Chill: 42°   Ceiling: 3800
Heat Index: 45°   Visibility: 10mi
Dew Point: 34°   Wind: 5mph
Humidity: 66%   Direction: 330°NNW
Pressure: 29.91"   Gusts: NA
Location:  41.3275°N, 85.1414°W
Report Text: KGWB 311815Z AUTO 33004KT 10SM SCT028 BKN038 OVC047 07/01 A2991 RMK AO2
Loading
Personal Weather Stations






























Interactive Weather Map
Tropical Storm Tracking
New forecast layout! Learn more

10-Day Weather Forecast

Advertisements
Track Severe Weather on mobile